Miltonia — SE4709 — position and weather

sailwx.info

Track history (hours):
 
Tides and Currents Weather Stations Pressure Air Temp Water Temp Dewpoint Dewpoint Depression Visibility Wind Speed Wind Dir Waves Ship Positions

Miltonia

Last reported at 2017-Nov-05 16:47 UTC. Time now 2017-Nov-21 04:42 UTC.
Position N 27°45' W 015°09'.
Warning: this ship's position is 15 days out of date.

Length 12 m.

Type: Pleasure craft. MMSI: 265704790.

Date/timePositionNaut miles runAvg speedWind from/ knotsBaromVisibWave heightAir tempDewpointWater temp
2017-Nov-05 16:47N 27°45' W 015°09'2 7.6
2017-Nov-05 16:30N 27°47' W 015°10'4 7.5
2017-Nov-05 16:00N 27°51' W 015°10'4 7.7
2017-Nov-05 15:30N 27°54' W 015°12'4 7.8
2017-Nov-05 15:00N 27°57' W 015°15'4 7.3
2017-Nov-05 14:29N 28°00' W 015°17'4 7.0
2017-Nov-05 13:58N 28°03' W 015°20'3 6.7
2017-Nov-05 13:29N 28°05' W 015°23'2 4.1
2017-Nov-05 12:58N 28°07' W 015°24'1 1.1
2017-Nov-05 12:26N 28°07' W 015°25'1 1.4
2017-Nov-05 11:44N 28°08' W 015°26'0 0.0
2017-Nov-05 11:29N 28°08' W 015°26'0 0.0
2017-Nov-05 10:47N 28°08' W 015°26'0 0.0
2017-Nov-05 10:29N 28°08' W 015°26'0 0.0
2017-Nov-05 09:35N 28°08' W 015°26'0 0.0
2017-Nov-05 09:23N 28°08' W 015°26'  
2017-Nov-02 16:36N 28°08' W 015°26'0 0.0
2017-Nov-02 16:22N 28°08' W 015°26'0 0.0
2017-Nov-02 15:51N 28°08' W 015°26'0 0.0
2017-Nov-02 15:21N 28°08' W 015°26'0 0.0
2017-Nov-02 14:59N 28°08' W 015°26'2 3.2
2017-Nov-02 14:27N 28°07' W 015°24'1 2.6
2017-Nov-02 13:57N 28°06' W 015°23'1 2.5
2017-Nov-02 13:27N 28°07' W 015°24'0 0.5
2017-Nov-02 12:56N 28°07' W 015°24'2 3.4
2017-Nov-02 12:26N 28°08' W 015°25'0 0.0
2017-Oct-31 19:19N 28°08' W 015°26'0 0.0
2017-Oct-31 18:52N 28°08' W 015°26'0 0.0
2017-Oct-31 11:36N 28°08' W 015°26'0 0.1
2017-Oct-31 11:30N 28°08' W 015°26'0 0.0
2017-Oct-31 10:51N 28°08' W 015°26'0 0.0
2017-Oct-30 22:52N 28°08' W 015°26'0 0.0
2017-Oct-30 22:19N 28°08' W 015°26'0 0.0
2017-Oct-30 21:52N 28°08' W 015°26'0 0.0
2017-Oct-30 00:33N 28°08' W 015°26'0 0.0
2017-Oct-30 00:30N 28°08' W 015°26'0 0.0
2017-Oct-30 00:00N 28°08' W 015°26'0 0.0
2017-Oct-29 23:21N 28°08' W 015°26'0 0.0
2017-Oct-29 23:00N 28°08' W 015°26'0 0.0
2017-Oct-29 22:21N 28°08' W 015°26'0 0.0
2017-Oct-29 21:39N 28°08' W 015°26'0 0.0
2017-Oct-29 21:21N 28°08' W 015°26'0 0.0
2017-Oct-29 20:48N 28°08' W 015°26'0 0.0
2017-Oct-29 20:24N 28°08' W 015°26'0 0.0
2017-Oct-29 19:54N 28°08' W 015°26'0 0.0
2017-Oct-29 19:24N 28°08' W 015°26'0 0.0
2017-Oct-29 18:57N 28°08' W 015°26'0 0.0
2017-Oct-29 18:27N 28°08' W 015°26'  
2017-Oct-26 19:20N 28°08' W 015°26'0 0.0
2017-Oct-26 18:53N 28°08' W 015°26'0 0.0
2017-Oct-26 18:23N 28°08' W 015°26'0 0.0
2017-Oct-26 17:53N 28°08' W 015°26'0 0.0
2017-Oct-26 17:23N 28°08' W 015°26'0 0.0
2017-Oct-26 16:56N 28°08' W 015°26'  
Track history (hours):
 
Tides and Currents Weather Stations Pressure Air Temp Water Temp Dewpoint Dewpoint Depression Visibility Wind Speed Wind Dir Waves Ship Positions

Miltonia

Last reported at 2017-Nov-05 16:47 UTC. Time now 2017-Nov-21 04:42 UTC.
Position N 27°45' W 015°09'.
Warning: this ship's position is 15 days out of date.

Length 12 m.

Type: Pleasure craft. MMSI: 265704790.

Date/timePositionNaut miles runAvg speedWind from/ knotsBaromVisibWave heightAir tempDewpointWater temp
2017-Nov-05 16:47N 27°45' W 015°09'2 7.6
2017-Nov-05 16:30N 27°47' W 015°10'4 7.5
2017-Nov-05 16:00N 27°51' W 015°10'4 7.7
2017-Nov-05 15:30N 27°54' W 015°12'4 7.8
2017-Nov-05 15:00N 27°57' W 015°15'4 7.3
2017-Nov-05 14:29N 28°00' W 015°17'4 7.0
2017-Nov-05 13:58N 28°03' W 015°20'3 6.7
2017-Nov-05 13:29N 28°05' W 015°23'2 4.1
2017-Nov-05 12:58N 28°07' W 015°24'1 1.1
2017-Nov-05 12:26N 28°07' W 015°25'1 1.4
2017-Nov-05 11:44N 28°08' W 015°26'0 0.0
2017-Nov-05 11:29N 28°08' W 015°26'0 0.0
2017-Nov-05 10:47N 28°08' W 015°26'0 0.0
2017-Nov-05 10:29N 28°08' W 015°26'0 0.0
2017-Nov-05 09:35N 28°08' W 015°26'0 0.0
2017-Nov-05 09:23N 28°08' W 015°26'  
2017-Nov-02 16:36N 28°08' W 015°26'0 0.0
2017-Nov-02 16:22N 28°08' W 015°26'0 0.0
2017-Nov-02 15:51N 28°08' W 015°26'0 0.0
2017-Nov-02 15:21N 28°08' W 015°26'0 0.0
2017-Nov-02 14:59N 28°08' W 015°26'2 3.2
2017-Nov-02 14:27N 28°07' W 015°24'1 2.6
2017-Nov-02 13:57N 28°06' W 015°23'1 2.5
2017-Nov-02 13:27N 28°07' W 015°24'0 0.5
2017-Nov-02 12:56N 28°07' W 015°24'2 3.4
2017-Nov-02 12:26N 28°08' W 015°25'0 0.0
2017-Oct-31 19:19N 28°08' W 015°26'0 0.0
2017-Oct-31 18:52N 28°08' W 015°26'0 0.0
2017-Oct-31 11:36N 28°08' W 015°26'0 0.1
2017-Oct-31 11:30N 28°08' W 015°26'0 0.0
2017-Oct-31 10:51N 28°08' W 015°26'0 0.0
2017-Oct-30 22:52N 28°08' W 015°26'0 0.0
2017-Oct-30 22:19N 28°08' W 015°26'0 0.0
2017-Oct-30 21:52N 28°08' W 015°26'0 0.0
2017-Oct-30 00:33N 28°08' W 015°26'0 0.0
2017-Oct-30 00:30N 28°08' W 015°26'0 0.0
2017-Oct-30 00:00N 28°08' W 015°26'0 0.0
2017-Oct-29 23:21N 28°08' W 015°26'0 0.0
2017-Oct-29 23:00N 28°08' W 015°26'0 0.0
2017-Oct-29 22:21N 28°08' W 015°26'0 0.0
2017-Oct-29 21:39N 28°08' W 015°26'0 0.0
2017-Oct-29 21:21N 28°08' W 015°26'0 0.0
2017-Oct-29 20:48N 28°08' W 015°26'0 0.0
2017-Oct-29 20:24N 28°08' W 015°26'0 0.0
2017-Oct-29 19:54N 28°08' W 015°26'0 0.0
2017-Oct-29 19:24N 28°08' W 015°26'0 0.0
2017-Oct-29 18:57N 28°08' W 015°26'0 0.0
2017-Oct-29 18:27N 28°08' W 015°26'  
2017-Oct-26 19:20N 28°08' W 015°26'0 0.0
2017-Oct-26 18:53N 28°08' W 015°26'0 0.0
2017-Oct-26 18:23N 28°08' W 015°26'0 0.0
2017-Oct-26 17:53N 28°08' W 015°26'0 0.0
2017-Oct-26 17:23N 28°08' W 015°26'0 0.0
2017-Oct-26 16:56N 28°08' W 015°26'  

Dump ship's entire track history